Cookville, Texas
Current Conditions -  °F | °C
As of 7:35 PM on Monday 20 Oct 2014 (Local Time) from KOSA Reporting Station
Clear Clear  
Wind Chill: 68°   Ceiling: Unl
Heat Index: 68°   Visibility: 10mi
Dew Point: 60°   Wind: 0mph
Humidity: 76%   Direction: NA
Pressure: 30.06"   Gusts: NA
Location:  33.19°N, 94.85°W
Report Text: KOSA 210035Z AUTO 00000KT 10SM CLR 20/16 A3006 RMK AO1 T02000157
Loading
Personal Weather Stations






























Interactive Weather Map
Tropical Storm Tracking
New forecast layout! Learn more

10-Day Weather Forecast

Advertisements
Track Severe Weather on mobile